sensor_id;sensor_type;location;lat;lon;timestamp;temperature;humidity
73586;DHT22;61865;50.232;18.614;2022-09-03T00:02:24;7.70;99.90
73586;DHT22;61865;50.232;18.614;2022-09-03T00:04:57;7.60;99.90
73586;DHT22;61865;50.232;18.614;2022-09-03T00:07:25;7.50;99.90
73586;DHT22;61865;50.232;18.614;2022-09-03T00:09:54;7.40;99.90
73586;DHT22;61865;50.232;18.614;2022-09-03T00:12:21;7.40;99.90
73586;DHT22;61865;50.232;18.614;2022-09-03T00:14:48;7.30;99.90
73586;DHT22;61865;50.232;18.614;2022-09-03T00:17:14;7.20;99.90
73586;DHT22;61865;50.232;18.614;2022-09-03T00:19:40;7.10;99.90
73586;DHT22;61865;50.232;18.614;2022-09-03T00:22:10;7.00;99.90
73586;DHT22;61865;50.232;18.614;2022-09-03T00:24:37;7.00;99.90
73586;DHT22;61865;50.232;18.614;2022-09-03T00:27:04;6.90;99.90
73586;DHT22;61865;50.232;18.614;2022-09-03T00:29:30;6.80;99.90
73586;DHT22;61865;50.232;18.614;2022-09-03T00:31:56;6.70;99.90
73586;DHT22;61865;50.232;18.614;2022-09-03T00:34:23;6.70;99.90
73586;DHT22;61865;50.232;18.614;2022-09-03T00:36:46;6.60;99.90
73586;DHT22;61865;50.232;18.614;2022-09-03T00:39:13;6.60;99.90
73586;DHT22;61865;50.232;18.614;2022-09-03T00:41:36;6.60;99.90
73586;DHT22;61865;50.232;18.614;2022-09-03T00:44:14;6.80;99.90
73586;DHT22;61865;50.232;18.614;2022-09-03T00:46:46;6.90;99.90
73586;DHT22;61865;50.232;18.614;2022-09-03T00:49:27;7.00;99.90
73586;DHT22;61865;50.232;18.614;2022-09-03T00:51:54;7.10;99.90
73586;DHT22;61865;50.232;18.614;2022-09-03T00:54:25;7.20;99.90
73586;DHT22;61865;50.232;18.614;2022-09-03T00:56:54;7.20;99.90
73586;DHT22;61865;50.232;18.614;2022-09-03T00:59:30;7.20;99.90
73586;DHT22;61865;50.232;18.614;2022-09-03T01:02:02;7.10;99.90
73586;DHT22;61865;50.232;18.614;2022-09-03T01:04:37;7.10;99.90
73586;DHT22;61865;50.232;18.614;2022-09-03T01:07:08;7.10;99.90
73586;DHT22;61865;50.232;18.614;2022-09-03T01:09:46;7.20;99.90
73586;DHT22;61865;50.232;18.614;2022-09-03T01:12:16;7.20;99.90
73586;DHT22;61865;50.232;18.614;2022-09-03T01:14:50;7.20;99.90
73586;DHT22;61865;50.232;18.614;2022-09-03T01:17:23;7.20;99.90
73586;DHT22;61865;50.232;18.614;2022-09-03T01:20:10;7.00;99.90
73586;DHT22;61865;50.232;18.614;2022-09-03T01:22:59;6.80;99.90
73586;DHT22;61865;50.232;18.614;2022-09-03T01:25:37;6.60;99.90
73586;DHT22;61865;50.232;18.614;2022-09-03T01:28:10;6.60;99.90
73586;DHT22;61865;50.232;18.614;2022-09-03T01:30:40;6.60;99.90
73586;DHT22;61865;50.232;18.614;2022-09-03T01:33:10;6.70;99.90
73586;DHT22;61865;50.232;18.614;2022-09-03T01:35:41;6.70;99.90
73586;DHT22;61865;50.232;18.614;2022-09-03T01:38:15;6.60;99.90
73586;DHT22;61865;50.232;18.614;2022-09-03T01:40:45;6.50;99.90
73586;DHT22;61865;50.232;18.614;2022-09-03T01:43:28;6.50;99.90
73586;DHT22;61865;50.232;18.614;2022-09-03T01:45:58;6.50;99.90
73586;DHT22;61865;50.232;18.614;2022-09-03T01:48:31;6.50;99.90
73586;DHT22;61865;50.232;18.614;2022-09-03T01:50:57;6.50;99.90
73586;DHT22;61865;50.232;18.614;2022-09-03T01:53:36;6.50;99.90
73586;DHT22;61865;50.232;18.614;2022-09-03T01:56:14;6.50;99.90
73586;DHT22;61865;50.232;18.614;2022-09-03T01:58:44;6.50;99.90
73586;DHT22;61865;50.232;18.614;2022-09-03T02:01:13;6.50;99.90
73586;DHT22;61865;50.232;18.614;2022-09-03T02:03:38;6.40;99.90
73586;DHT22;61865;50.232;18.614;2022-09-03T02:06:02;6.30;99.90
73586;DHT22;61865;50.232;18.614;2022-09-03T02:08:26;6.30;99.90
73586;DHT22;61865;50.232;18.614;2022-09-03T02:10:51;6.20;99.90
73586;DHT22;61865;50.232;18.614;2022-09-03T02:13:16;6.20;99.90
73586;DHT22;61865;50.232;18.614;2022-09-03T02:15:43;6.20;99.90
73586;DHT22;61865;50.232;18.614;2022-09-03T02:18:10;6.20;99.90
73586;DHT22;61865;50.232;18.614;2022-09-03T02:20:34;6.30;99.90
73586;DHT22;61865;50.232;18.614;2022-09-03T02:22:57;6.20;99.90
73586;DHT22;61865;50.232;18.614;2022-09-03T02:25:21;6.10;99.90
73586;DHT22;61865;50.232;18.614;2022-09-03T02:27:44;6.00;99.90
73586;DHT22;61865;50.232;18.614;2022-09-03T02:30:09;6.00;99.90
73586;DHT22;61865;50.232;18.614;2022-09-03T02:32:33;5.90;99.90
73586;DHT22;61865;50.232;18.614;2022-09-03T02:34:55;6.00;99.90
73586;DHT22;61865;50.232;18.614;2022-09-03T02:37:17;6.10;99.90
73586;DHT22;61865;50.232;18.614;2022-09-03T02:39:39;6.10;99.90
73586;DHT22;61865;50.232;18.614;2022-09-03T02:42:01;6.20;99.90
73586;DHT22;61865;50.232;18.614;2022-09-03T02:44:26;6.20;99.90
73586;DHT22;61865;50.232;18.614;2022-09-03T02:46:54;6.20;99.90
73586;DHT22;61865;50.232;18.614;2022-09-03T02:49:19;6.30;99.90
73586;DHT22;61865;50.232;18.614;2022-09-03T02:51:42;6.30;99.90
73586;DHT22;61865;50.232;18.614;2022-09-03T02:54:05;6.30;99.90
73586;DHT22;61865;50.232;18.614;2022-09-03T02:56:26;6.30;99.90
73586;DHT22;61865;50.232;18.614;2022-09-03T02:58:48;6.40;99.90
73586;DHT22;61865;50.232;18.614;2022-09-03T03:01:10;6.40;99.90
73586;DHT22;61865;50.232;18.614;2022-09-03T03:03:32;6.50;99.90
73586;DHT22;61865;50.232;18.614;2022-09-03T03:05:57;6.40;99.90
73586;DHT22;61865;50.232;18.614;2022-09-03T03:08:20;6.50;99.90
73586;DHT22;61865;50.232;18.614;2022-09-03T03:10:45;6.40;99.90
73586;DHT22;61865;50.232;18.614;2022-09-03T03:13:07;6.40;99.90
73586;DHT22;61865;50.232;18.614;2022-09-03T03:15:29;6.40;99.90
73586;DHT22;61865;50.232;18.614;2022-09-03T03:17:50;6.50;99.90
73586;DHT22;61865;50.232;18.614;2022-09-03T03:20:13;6.60;99.90
73586;DHT22;61865;50.232;18.614;2022-09-03T03:22:36;6.60;99.90
73586;DHT22;61865;50.232;18.614;2022-09-03T03:24:57;6.60;99.90
73586;DHT22;61865;50.232;18.614;2022-09-03T03:27:19;6.60;99.90
73586;DHT22;61865;50.232;18.614;2022-09-03T03:29:42;6.70;99.90
73586;DHT22;61865;50.232;18.614;2022-09-03T03:32:04;6.70;99.90
73586;DHT22;61865;50.232;18.614;2022-09-03T03:34:26;6.60;99.90
73586;DHT22;61865;50.232;18.614;2022-09-03T03:36:47;6.60;99.90
73586;DHT22;61865;50.232;18.614;2022-09-03T03:39:11;6.70;99.90
73586;DHT22;61865;50.232;18.614;2022-09-03T03:41:34;6.70;99.90
73586;DHT22;61865;50.232;18.614;2022-09-03T03:43:58;6.70;99.90
73586;DHT22;61865;50.232;18.614;2022-09-03T03:46:21;6.60;99.90
73586;DHT22;61865;50.232;18.614;2022-09-03T03:48:43;6.60;99.90
73586;DHT22;61865;50.232;18.614;2022-09-03T03:51:08;6.60;99.90
73586;DHT22;61865;50.232;18.614;2022-09-03T03:53:30;6.60;99.90
73586;DHT22;61865;50.232;18.614;2022-09-03T03:55:57;6.60;99.90
73586;DHT22;61865;50.232;18.614;2022-09-03T03:58:20;6.50;99.90
73586;DHT22;61865;50.232;18.614;2022-09-03T04:00:42;6.50;99.90
73586;DHT22;61865;50.232;18.614;2022-09-03T04:03:04;6.60;99.90
73586;DHT22;61865;50.232;18.614;2022-09-03T04:05:26;6.60;99.90
73586;DHT22;61865;50.232;18.614;2022-09-03T04:07:48;6.60;99.90
73586;DHT22;61865;50.232;18.614;2022-09-03T04:10:10;6.60;99.90
73586;DHT22;61865;50.232;18.614;2022-09-03T04:12:33;6.60;99.90
73586;DHT22;61865;50.232;18.614;2022-09-03T04:14:55;6.60;99.90
73586;DHT22;61865;50.232;18.614;2022-09-03T04:17:17;6.70;99.90
73586;DHT22;61865;50.232;18.614;2022-09-03T04:19:39;6.80;99.90
73586;DHT22;61865;50.232;18.614;2022-09-03T04:22:00;6.90;99.90
73586;DHT22;61865;50.232;18.614;2022-09-03T04:24:23;6.90;99.90
73586;DHT22;61865;50.232;18.614;2022-09-03T04:26:45;6.80;99.90
73586;DHT22;61865;50.232;18.614;2022-09-03T04:29:08;6.80;99.90
73586;DHT22;61865;50.232;18.614;2022-09-03T04:31:31;6.90;99.90
73586;DHT22;61865;50.232;18.614;2022-09-03T04:33:53;6.90;99.90
73586;DHT22;61865;50.232;18.614;2022-09-03T04:36:16;7.00;99.90
73586;DHT22;61865;50.232;18.614;2022-09-03T04:38:40;7.00;99.90
73586;DHT22;61865;50.232;18.614;2022-09-03T04:41:03;7.10;99.90
73586;DHT22;61865;50.232;18.614;2022-09-03T04:43:25;7.30;99.90
73586;DHT22;61865;50.232;18.614;2022-09-03T04:45:48;7.40;99.90
73586;DHT22;61865;50.232;18.614;2022-09-03T04:48:10;7.40;99.90
73586;DHT22;61865;50.232;18.614;2022-09-03T04:50:32;7.60;99.90
73586;DHT22;61865;50.232;18.614;2022-09-03T04:52:58;7.80;99.90
73586;DHT22;61865;50.232;18.614;2022-09-03T04:55:21;7.90;99.90
73586;DHT22;61865;50.232;18.614;2022-09-03T04:57:43;8.00;99.90
73586;DHT22;61865;50.232;18.614;2022-09-03T05:00:08;8.20;99.90
73586;DHT22;61865;50.232;18.614;2022-09-03T05:02:32;8.30;99.90
73586;DHT22;61865;50.232;18.614;2022-09-03T05:04:54;8.40;99.90
73586;DHT22;61865;50.232;18.614;2022-09-03T05:07:16;8.50;99.90
73586;DHT22;61865;50.232;18.614;2022-09-03T05:09:39;8.60;99.90
73586;DHT22;61865;50.232;18.614;2022-09-03T05:12:00;8.70;99.90
73586;DHT22;61865;50.232;18.614;2022-09-03T05:14:22;8.90;99.90
73586;DHT22;61865;50.232;18.614;2022-09-03T05:16:44;8.90;99.90
73586;DHT22;61865;50.232;18.614;2022-09-03T05:19:07;9.00;99.90
73586;DHT22;61865;50.232;18.614;2022-09-03T05:21:30;9.20;99.90
73586;DHT22;61865;50.232;18.614;2022-09-03T05:23:52;9.30;99.90
73586;DHT22;61865;50.232;18.614;2022-09-03T05:26:16;9.40;99.90
73586;DHT22;61865;50.232;18.614;2022-09-03T05:28:39;9.60;99.90
73586;DHT22;61865;50.232;18.614;2022-09-03T05:31:03;9.80;99.90
73586;DHT22;61865;50.232;18.614;2022-09-03T05:33:25;10.00;99.90
73586;DHT22;61865;50.232;18.614;2022-09-03T05:35:49;10.10;99.90
73586;DHT22;61865;50.232;18.614;2022-09-03T05:38:13;10.40;99.90
73586;DHT22;61865;50.232;18.614;2022-09-03T05:40:36;10.60;99.90
73586;DHT22;61865;50.232;18.614;2022-09-03T05:42:59;10.80;99.90
73586;DHT22;61865;50.232;18.614;2022-09-03T05:45:20;11.00;99.90
73586;DHT22;61865;50.232;18.614;2022-09-03T05:47:42;11.20;99.90
73586;DHT22;61865;50.232;18.614;2022-09-03T05:50:06;11.40;99.90
73586;DHT22;61865;50.232;18.614;2022-09-03T05:52:31;11.50;99.90
73586;DHT22;61865;50.232;18.614;2022-09-03T05:54:53;11.50;99.90
73586;DHT22;61865;50.232;18.614;2022-09-03T05:57:15;11.50;99.90
73586;DHT22;61865;50.232;18.614;2022-09-03T05:59:37;11.50;99.90
73586;DHT22;61865;50.232;18.614;2022-09-03T06:01:59;11.50;99.90
73586;DHT22;61865;50.232;18.614;2022-09-03T06:04:21;11.50;99.90
73586;DHT22;61865;50.232;18.614;2022-09-03T06:06:44;11.50;99.90
73586;DHT22;61865;50.232;18.614;2022-09-03T06:09:09;11.70;99.90
73586;DHT22;61865;50.232;18.614;2022-09-03T06:11:34;11.90;99.90
73586;DHT22;61865;50.232;18.614;2022-09-03T06:13:56;12.10;99.90
73586;DHT22;61865;50.232;18.614;2022-09-03T06:16:19;12.30;99.90
73586;DHT22;61865;50.232;18.614;2022-09-03T06:18:42;12.40;99.90
73586;DHT22;61865;50.232;18.614;2022-09-03T06:21:05;12.60;99.90
73586;DHT22;61865;50.232;18.614;2022-09-03T06:23:28;12.70;99.90
73586;DHT22;61865;50.232;18.614;2022-09-03T06:26:00;12.80;99.90
73586;DHT22;61865;50.232;18.614;2022-09-03T06:28:22;12.90;99.90
73586;DHT22;61865;50.232;18.614;2022-09-03T06:30:46;13.10;99.90
73586;DHT22;61865;50.232;18.614;2022-09-03T06:33:08;13.30;99.90
73586;DHT22;61865;50.232;18.614;2022-09-03T06:35:30;13.40;99.90
73586;DHT22;61865;50.232;18.614;2022-09-03T06:37:52;13.40;99.90
73586;DHT22;61865;50.232;18.614;2022-09-03T06:40:14;13.50;99.90
73586;DHT22;61865;50.232;18.614;2022-09-03T06:42:43;13.60;99.90
73586;DHT22;61865;50.232;18.614;2022-09-03T06:45:06;13.70;99.90
73586;DHT22;61865;50.232;18.614;2022-09-03T06:47:28;13.90;99.90
73586;DHT22;61865;50.232;18.614;2022-09-03T06:49:50;14.00;99.90
73586;DHT22;61865;50.232;18.614;2022-09-03T06:52:12;14.20;99.90
73586;DHT22;61865;50.232;18.614;2022-09-03T06:54:33;14.30;98.20
73586;DHT22;61865;50.232;18.614;2022-09-03T06:56:55;14.40;97.80
73586;DHT22;61865;50.232;18.614;2022-09-03T06:59:19;14.40;98.70
73586;DHT22;61865;50.232;18.614;2022-09-03T07:01:42;14.40;98.90
73586;DHT22;61865;50.232;18.614;2022-09-03T07:04:05;14.60;98.60
73586;DHT22;61865;50.232;18.614;2022-09-03T07:06:29;14.70;97.50
73586;DHT22;61865;50.232;18.614;2022-09-03T07:08:52;14.80;96.80
73586;DHT22;61865;50.232;18.614;2022-09-03T07:11:16;14.90;97.00
73586;DHT22;61865;50.232;18.614;2022-09-03T07:13:40;15.00;96.20
73586;DHT22;61865;50.232;18.614;2022-09-03T07:16:06;15.00;95.30
73586;DHT22;61865;50.232;18.614;2022-09-03T07:18:29;15.10;94.70
73586;DHT22;61865;50.232;18.614;2022-09-03T07:20:51;15.20;94.20
73586;DHT22;61865;50.232;18.614;2022-09-03T07:23:13;15.30;94.30
73586;DHT22;61865;50.232;18.614;2022-09-03T07:25:35;15.30;94.00
73586;DHT22;61865;50.232;18.614;2022-09-03T07:27:57;15.40;92.90
73586;DHT22;61865;50.232;18.614;2022-09-03T07:30:19;15.40;92.10
73586;DHT22;61865;50.232;18.614;2022-09-03T07:32:42;15.50;92.40
73586;DHT22;61865;50.232;18.614;2022-09-03T07:35:06;15.50;92.30
73586;DHT22;61865;50.232;18.614;2022-09-03T07:37:28;15.60;93.10
73586;DHT22;61865;50.232;18.614;2022-09-03T07:39:50;15.60;90.60
73586;DHT22;61865;50.232;18.614;2022-09-03T07:42:12;15.50;91.90
73586;DHT22;61865;50.232;18.614;2022-09-03T07:44:34;15.60;91.00
73586;DHT22;61865;50.232;18.614;2022-09-03T07:46:56;15.70;91.20
73586;DHT22;61865;50.232;18.614;2022-09-03T07:49:20;15.90;91.30
73586;DHT22;61865;50.232;18.614;2022-09-03T07:51:42;16.00;91.70
73586;DHT22;61865;50.232;18.614;2022-09-03T07:54:07;16.10;87.10
73586;DHT22;61865;50.232;18.614;2022-09-03T07:56:30;16.20;85.30
73586;DHT22;61865;50.232;18.614;2022-09-03T07:58:52;16.30;85.90
73586;DHT22;61865;50.232;18.614;2022-09-03T08:01:16;16.20;85.70
73586;DHT22;61865;50.232;18.614;2022-09-03T08:03:41;16.30;85.70
73586;DHT22;61865;50.232;18.614;2022-09-03T08:06:06;16.30;85.50
73586;DHT22;61865;50.232;18.614;2022-09-03T08:08:29;16.40;82.60
73586;DHT22;61865;50.232;18.614;2022-09-03T08:10:52;16.30;83.80
73586;DHT22;61865;50.232;18.614;2022-09-03T08:13:14;16.20;83.80
73586;DHT22;61865;50.232;18.614;2022-09-03T08:15:36;16.10;83.30
73586;DHT22;61865;50.232;18.614;2022-09-03T08:17:59;16.00;84.20
73586;DHT22;61865;50.232;18.614;2022-09-03T08:20:21;16.00;84.00
73586;DHT22;61865;50.232;18.614;2022-09-03T08:22:44;16.10;89.00
73586;DHT22;61865;50.232;18.614;2022-09-03T08:25:07;16.40;84.60
73586;DHT22;61865;50.232;18.614;2022-09-03T08:27:30;16.60;82.40
73586;DHT22;61865;50.232;18.614;2022-09-03T08:29:52;16.80;81.30
73586;DHT22;61865;50.232;18.614;2022-09-03T08:32:14;16.90;78.60
73586;DHT22;61865;50.232;18.614;2022-09-03T08:34:36;17.00;76.80
73586;DHT22;61865;50.232;18.614;2022-09-03T08:36:58;17.10;77.80
73586;DHT22;61865;50.232;18.614;2022-09-03T08:39:22;17.30;75.50
73586;DHT22;61865;50.232;18.614;2022-09-03T08:42:16;17.40;75.50
73586;DHT22;61865;50.232;18.614;2022-09-03T08:44:44;17.40;75.80
73586;DHT22;61865;50.232;18.614;2022-09-03T08:47:10;17.50;74.10
73586;DHT22;61865;50.232;18.614;2022-09-03T08:49:39;17.70;73.60
73586;DHT22;61865;50.232;18.614;2022-09-03T08:52:18;17.70;73.20
73586;DHT22;61865;50.232;18.614;2022-09-03T08:54:42;17.80;73.30
73586;DHT22;61865;50.232;18.614;2022-09-03T08:57:05;18.00;73.00
73586;DHT22;61865;50.232;18.614;2022-09-03T08:59:29;17.90;69.00
73586;DHT22;61865;50.232;18.614;2022-09-03T09:01:56;17.60;70.60
73586;DHT22;61865;50.232;18.614;2022-09-03T09:04:28;17.70;70.60
73586;DHT22;61865;50.232;18.614;2022-09-03T09:06:57;17.80;71.20
73586;DHT22;61865;50.232;18.614;2022-09-03T09:09:28;18.10;71.60
73586;DHT22;61865;50.232;18.614;2022-09-03T09:12:00;18.20;68.20
73586;DHT22;61865;50.232;18.614;2022-09-03T09:14:31;18.20;67.60
73586;DHT22;61865;50.232;18.614;2022-09-03T09:17:03;18.20;68.30
73586;DHT22;61865;50.232;18.614;2022-09-03T09:19:38;18.20;68.00
73586;DHT22;61865;50.232;18.614;2022-09-03T09:22:06;18.20;67.50
73586;DHT22;61865;50.232;18.614;2022-09-03T09:24:36;18.30;68.50
73586;DHT22;61865;50.232;18.614;2022-09-03T09:27:03;18.30;66.80
73586;DHT22;61865;50.232;18.614;2022-09-03T09:29:26;18.20;67.10
73586;DHT22;61865;50.232;18.614;2022-09-03T09:31:52;18.10;66.70
73586;DHT22;61865;50.232;18.614;2022-09-03T09:34:14;18.10;67.60
73586;DHT22;61865;50.232;18.614;2022-09-03T09:36:41;18.20;69.70
73586;DHT22;61865;50.232;18.614;2022-09-03T09:39:08;18.30;68.20
73586;DHT22;61865;50.232;18.614;2022-09-03T09:41:30;18.30;67.50
73586;DHT22;61865;50.232;18.614;2022-09-03T09:44:01;18.30;67.10
73586;DHT22;61865;50.232;18.614;2022-09-03T09:46:31;18.00;67.80
73586;DHT22;61865;50.232;18.614;2022-09-03T09:48:56;18.20;69.20
73586;DHT22;61865;50.232;18.614;2022-09-03T09:51:20;18.30;67.50
73586;DHT22;61865;50.232;18.614;2022-09-03T09:53:42;18.60;68.20
73586;DHT22;61865;50.232;18.614;2022-09-03T09:56:05;18.90;65.70
73586;DHT22;61865;50.232;18.614;2022-09-03T09:58:28;19.10;64.30
73586;DHT22;61865;50.232;18.614;2022-09-03T10:01:01;19.30;64.10
73586;DHT22;61865;50.232;18.614;2022-09-03T10:03:23;19.50;63.30
73586;DHT22;61865;50.232;18.614;2022-09-03T10:05:57;19.50;63.00
73586;DHT22;61865;50.232;18.614;2022-09-03T10:08:21;19.50;62.90
73586;DHT22;61865;50.232;18.614;2022-09-03T10:10:46;19.30;61.80
73586;DHT22;61865;50.232;18.614;2022-09-03T10:13:13;19.10;63.00
73586;DHT22;61865;50.232;18.614;2022-09-03T10:15:43;18.90;63.90
73586;DHT22;61865;50.232;18.614;2022-09-03T10:18:14;19.10;63.80
73586;DHT22;61865;50.232;18.614;2022-09-03T10:20:45;19.30;62.60
73586;DHT22;61865;50.232;18.614;2022-09-03T10:23:14;19.50;61.50
73586;DHT22;61865;50.232;18.614;2022-09-03T10:25:41;19.60;61.20
73586;DHT22;61865;50.232;18.614;2022-09-03T10:28:11;19.60;61.80
73586;DHT22;61865;50.232;18.614;2022-09-03T10:30:43;19.80;62.80
73586;DHT22;61865;50.232;18.614;2022-09-03T10:33:14;20.00;61.40
73586;DHT22;61865;50.232;18.614;2022-09-03T10:35:41;20.10;60.10
73586;DHT22;61865;50.232;18.614;2022-09-03T10:38:09;20.10;61.00
73586;DHT22;61865;50.232;18.614;2022-09-03T10:40:37;20.10;60.00
73586;DHT22;61865;50.232;18.614;2022-09-03T10:43:16;20.20;60.50
73586;DHT22;61865;50.232;18.614;2022-09-03T10:45:50;20.20;59.60
73586;DHT22;61865;50.232;18.614;2022-09-03T10:48:40;20.30;58.90
73586;DHT22;61865;50.232;18.614;2022-09-03T10:51:13;20.20;59.20
73586;DHT22;61865;50.232;18.614;2022-09-03T10:54:00;20.20;59.70
73586;DHT22;61865;50.232;18.614;2022-09-03T10:56:30;20.10;60.60
73586;DHT22;61865;50.232;18.614;2022-09-03T10:59:06;20.00;59.50
73586;DHT22;61865;50.232;18.614;2022-09-03T11:01:34;19.80;60.10
73586;DHT22;61865;50.232;18.614;2022-09-03T11:04:21;19.70;60.40
73586;DHT22;61865;50.232;18.614;2022-09-03T11:06:50;19.70;59.80
73586;DHT22;61865;50.232;18.614;2022-09-03T11:09:17;19.60;60.70
73586;DHT22;61865;50.232;18.614;2022-09-03T11:11:43;19.70;60.50
73586;DHT22;61865;50.232;18.614;2022-09-03T11:14:07;19.70;59.90
73586;DHT22;61865;50.232;18.614;2022-09-03T11:16:31;19.90;60.40
73586;DHT22;61865;50.232;18.614;2022-09-03T11:18:56;20.20;60.70
73586;DHT22;61865;50.232;18.614;2022-09-03T11:21:23;20.20;60.30
73586;DHT22;61865;50.232;18.614;2022-09-03T11:23:50;20.10;61.30
73586;DHT22;61865;50.232;18.614;2022-09-03T11:26:16;20.10;60.60
73586;DHT22;61865;50.232;18.614;2022-09-03T11:28:43;20.10;60.00
73586;DHT22;61865;50.232;18.614;2022-09-03T11:31:19;20.30;59.30
73586;DHT22;61865;50.232;18.614;2022-09-03T11:33:45;20.20;60.00
73586;DHT22;61865;50.232;18.614;2022-09-03T11:36:08;20.10;59.70
73586;DHT22;61865;50.232;18.614;2022-09-03T11:38:31;20.10;59.90
73586;DHT22;61865;50.232;18.614;2022-09-03T11:40:59;20.10;60.20
73586;DHT22;61865;50.232;18.614;2022-09-03T11:43:26;20.00;60.20
73586;DHT22;61865;50.232;18.614;2022-09-03T11:45:48;19.90;60.60
73586;DHT22;61865;50.232;18.614;2022-09-03T11:48:33;19.80;60.80
73586;DHT22;61865;50.232;18.614;2022-09-03T11:50:57;19.80;60.70
73586;DHT22;61865;50.232;18.614;2022-09-03T11:53:24;19.50;63.10
73586;DHT22;61865;50.232;18.614;2022-09-03T11:55:53;19.20;62.40
73586;DHT22;61865;50.232;18.614;2022-09-03T11:58:19;19.00;63.30
73586;DHT22;61865;50.232;18.614;2022-09-03T12:00:44;19.20;64.50
73586;DHT22;61865;50.232;18.614;2022-09-03T12:03:06;19.40;63.70
73586;DHT22;61865;50.232;18.614;2022-09-03T12:05:35;19.40;63.20
73586;DHT22;61865;50.232;18.614;2022-09-03T12:08:15;19.50;63.40
73586;DHT22;61865;50.232;18.614;2022-09-03T12:10:47;19.50;63.10
73586;DHT22;61865;50.232;18.614;2022-09-03T12:13:25;19.30;62.80
73586;DHT22;61865;50.232;18.614;2022-09-03T12:16:26;19.20;64.10
73586;DHT22;61865;50.232;18.614;2022-09-03T12:18:54;19.20;63.50
73586;DHT22;61865;50.232;18.614;2022-09-03T12:21:18;19.20;63.90
73586;DHT22;61865;50.232;18.614;2022-09-03T12:23:41;19.00;62.70
73586;DHT22;61865;50.232;18.614;2022-09-03T12:26:06;19.00;64.80
73586;DHT22;61865;50.232;18.614;2022-09-03T12:28:37;19.00;63.30
73586;DHT22;61865;50.232;18.614;2022-09-03T12:31:08;19.10;63.20
73586;DHT22;61865;50.232;18.614;2022-09-03T12:33:41;19.10;62.50
73586;DHT22;61865;50.232;18.614;2022-09-03T12:36:03;19.00;62.70
73586;DHT22;61865;50.232;18.614;2022-09-03T12:38:26;18.80;63.90
73586;DHT22;61865;50.232;18.614;2022-09-03T12:40:48;18.60;62.50
73586;DHT22;61865;50.232;18.614;2022-09-03T12:43:12;18.60;63.90
73586;DHT22;61865;50.232;18.614;2022-09-03T12:45:41;18.70;64.10
73586;DHT22;61865;50.232;18.614;2022-09-03T12:48:11;18.90;63.70
73586;DHT22;61865;50.232;18.614;2022-09-03T12:50:35;19.10;63.90
73586;DHT22;61865;50.232;18.614;2022-09-03T12:52:58;19.30;62.60
73586;DHT22;61865;50.232;18.614;2022-09-03T12:55:28;19.40;63.00
73586;DHT22;61865;50.232;18.614;2022-09-03T12:57:55;19.40;61.60
73586;DHT22;61865;50.232;18.614;2022-09-03T13:00:18;19.50;62.30
73586;DHT22;61865;50.232;18.614;2022-09-03T13:02:46;19.60;61.40
73586;DHT22;61865;50.232;18.614;2022-09-03T13:05:13;19.80;62.00
73586;DHT22;61865;50.232;18.614;2022-09-03T13:07:37;20.00;61.10
73586;DHT22;61865;50.232;18.614;2022-09-03T13:10:03;20.10;59.90
73586;DHT22;61865;50.232;18.614;2022-09-03T13:12:29;20.00;60.30
73586;DHT22;61865;50.232;18.614;2022-09-03T13:14:53;19.90;61.50
73586;DHT22;61865;50.232;18.614;2022-09-03T13:17:29;19.80;60.70
73586;DHT22;61865;50.232;18.614;2022-09-03T13:22:59;19.70;61.50
73586;DHT22;61865;50.232;18.614;2022-09-03T13:25:25;19.70;60.40
73586;DHT22;61865;50.232;18.614;2022-09-03T13:27:58;19.90;61.30
73586;DHT22;61865;50.232;18.614;2022-09-03T13:30:29;20.00;60.50
73586;DHT22;61865;50.232;18.614;2022-09-03T13:32:58;19.90;60.50
73586;DHT22;61865;50.232;18.614;2022-09-03T13:35:28;19.80;60.30
73586;DHT22;61865;50.232;18.614;2022-09-03T13:37:52;19.70;60.90
73586;DHT22;61865;50.232;18.614;2022-09-03T13:40:18;19.60;62.40
73586;DHT22;61865;50.232;18.614;2022-09-03T13:42:48;19.50;61.80
73586;DHT22;61865;50.232;18.614;2022-09-03T13:45:20;19.60;62.00
73586;DHT22;61865;50.232;18.614;2022-09-03T13:47:48;19.60;62.80
73586;DHT22;61865;50.232;18.614;2022-09-03T13:50:40;19.60;62.70
73586;DHT22;61865;50.232;18.614;2022-09-03T13:53:06;19.80;62.80
73586;DHT22;61865;50.232;18.614;2022-09-03T13:55:34;19.70;62.00
73586;DHT22;61865;50.232;18.614;2022-09-03T13:58:00;19.50;61.70
73586;DHT22;61865;50.232;18.614;2022-09-03T14:00:29;19.30;63.50
73586;DHT22;61865;50.232;18.614;2022-09-03T14:02:54;19.10;64.30
73586;DHT22;61865;50.232;18.614;2022-09-03T14:05:30;19.20;64.90
73586;DHT22;61865;50.232;18.614;2022-09-03T14:08:04;19.20;63.70
73586;DHT22;61865;50.232;18.614;2022-09-03T14:10:38;19.30;64.30
73586;DHT22;61865;50.232;18.614;2022-09-03T14:13:12;19.30;64.40
73586;DHT22;61865;50.232;18.614;2022-09-03T14:15:42;19.20;63.70
73586;DHT22;61865;50.232;18.614;2022-09-03T14:18:11;19.20;64.90
73586;DHT22;61865;50.232;18.614;2022-09-03T14:20:42;19.30;64.20
73586;DHT22;61865;50.232;18.614;2022-09-03T14:23:23;19.30;64.50
73586;DHT22;61865;50.232;18.614;2022-09-03T14:25:52;19.50;64.00
73586;DHT22;61865;50.232;18.614;2022-09-03T14:28:25;19.50;63.60
73586;DHT22;61865;50.232;18.614;2022-09-03T14:30:54;19.60;63.70
73586;DHT22;61865;50.232;18.614;2022-09-03T14:33:24;19.70;63.30
73586;DHT22;61865;50.232;18.614;2022-09-03T14:36:01;19.70;63.10
73586;DHT22;61865;50.232;18.614;2022-09-03T14:38:50;19.80;63.10
73586;DHT22;61865;50.232;18.614;2022-09-03T14:44:32;19.70;63.20
73586;DHT22;61865;50.232;18.614;2022-09-03T14:47:17;19.60;63.00
73586;DHT22;61865;50.232;18.614;2022-09-03T14:50:08;19.60;63.40
73586;DHT22;61865;50.232;18.614;2022-09-03T14:52:48;19.60;63.70
73586;DHT22;61865;50.232;18.614;2022-09-03T14:55:26;19.60;64.50
73586;DHT22;61865;50.232;18.614;2022-09-03T15:00:51;19.80;64.60
73586;DHT22;61865;50.232;18.614;2022-09-03T15:06:19;19.80;63.30
73586;DHT22;61865;50.232;18.614;2022-09-03T15:09:01;19.80;63.30
73586;DHT22;61865;50.232;18.614;2022-09-03T15:11:29;19.80;64.10
73586;DHT22;61865;50.232;18.614;2022-09-03T15:13:57;19.90;63.50
73586;DHT22;61865;50.232;18.614;2022-09-03T15:16:32;19.90;62.90
73586;DHT22;61865;50.232;18.614;2022-09-03T15:19:09;20.00;62.40
73586;DHT22;61865;50.232;18.614;2022-09-03T15:21:43;20.00;63.60
73586;DHT22;61865;50.232;18.614;2022-09-03T15:24:14;20.10;62.70
73586;DHT22;61865;50.232;18.614;2022-09-03T15:26:51;20.10;61.80
73586;DHT22;61865;50.232;18.614;2022-09-03T15:29:33;20.10;62.30
73586;DHT22;61865;50.232;18.614;2022-09-03T15:32:04;20.10;62.10
73586;DHT22;61865;50.232;18.614;2022-09-03T15:34:53;19.90;63.80